sensor_id;sensor_type;location;lat;lon;timestamp;P1;durP1;ratioP1;P2;durP2;ratioP2
34098;SDS011;20374;49.474;10.944;2022-09-03T00:01:18;3.90;;;3.60;;
34098;SDS011;20374;49.474;10.944;2022-09-03T00:03:54;3.70;;;3.50;;
34098;SDS011;20374;49.474;10.944;2022-09-03T00:06:42;3.70;;;3.40;;
34098;SDS011;20374;49.474;10.944;2022-09-03T00:09:24;3.88;;;3.55;;
34098;SDS011;20374;49.474;10.944;2022-09-03T00:20:36;3.85;;;3.33;;
34098;SDS011;20374;49.474;10.944;2022-09-03T00:23:17;4.30;;;4.00;;
34098;SDS011;20374;49.474;10.944;2022-09-03T00:25:48;3.88;;;3.58;;
34098;SDS011;20374;49.474;10.944;2022-09-03T00:28:26;3.97;;;3.67;;
34098;SDS011;20374;49.474;10.944;2022-09-03T00:31:05;3.88;;;3.58;;
34098;SDS011;20374;49.474;10.944;2022-09-03T00:33:43;4.13;;;3.72;;
34098;SDS011;20374;49.474;10.944;2022-09-03T00:38:44;3.63;;;3.28;;
34098;SDS011;20374;49.474;10.944;2022-09-03T00:46:41;4.05;;;3.75;;
34098;SDS011;20374;49.474;10.944;2022-09-03T00:57:22;3.42;;;3.13;;
34098;SDS011;20374;49.474;10.944;2022-09-03T00:59:56;4.07;;;3.78;;
34098;SDS011;20374;49.474;10.944;2022-09-03T01:13:49;4.80;;;3.75;;
34098;SDS011;20374;49.474;10.944;2022-09-03T01:28:40;3.80;;;3.40;;
34098;SDS011;20374;49.474;10.944;2022-09-03T01:31:34;3.50;;;3.20;;
34098;SDS011;20374;49.474;10.944;2022-09-03T01:39:48;3.60;;;3.30;;
34098;SDS011;20374;49.474;10.944;2022-09-03T01:45:16;3.25;;;2.95;;
34098;SDS011;20374;49.474;10.944;2022-09-03T01:59:32;3.53;;;3.22;;
34098;SDS011;20374;49.474;10.944;2022-09-03T02:02:05;3.22;;;2.92;;
34098;SDS011;20374;49.474;10.944;2022-09-03T02:04:35;3.85;;;3.55;;
34098;SDS011;20374;49.474;10.944;2022-09-03T02:07:01;3.78;;;3.47;;
34098;SDS011;20374;49.474;10.944;2022-09-03T02:09:27;3.70;;;3.40;;
34098;SDS011;20374;49.474;10.944;2022-09-03T02:11:56;4.00;;;3.70;;
34098;SDS011;20374;49.474;10.944;2022-09-03T02:14:27;4.22;;;3.92;;
34098;SDS011;20374;49.474;10.944;2022-09-03T02:16:55;3.53;;;3.22;;
34098;SDS011;20374;49.474;10.944;2022-09-03T02:19:23;3.78;;;3.47;;
34098;SDS011;20374;49.474;10.944;2022-09-03T02:21:53;3.50;;;3.20;;
34098;SDS011;20374;49.474;10.944;2022-09-03T02:24:21;3.10;;;2.90;;
34098;SDS011;20374;49.474;10.944;2022-09-03T02:26:48;3.72;;;3.42;;
34098;SDS011;20374;49.474;10.944;2022-09-03T02:29:15;3.70;;;3.40;;
34098;SDS011;20374;49.474;10.944;2022-09-03T02:31:42;4.20;;;3.90;;
34098;SDS011;20374;49.474;10.944;2022-09-03T02:34:08;3.65;;;3.40;;
34098;SDS011;20374;49.474;10.944;2022-09-03T02:36:38;3.50;;;3.20;;
34098;SDS011;20374;49.474;10.944;2022-09-03T02:39:07;3.70;;;3.40;;
34098;SDS011;20374;49.474;10.944;2022-09-03T02:41:33;4.18;;;3.88;;
34098;SDS011;20374;49.474;10.944;2022-09-03T02:49:09;4.20;;;3.90;;
34098;SDS011;20374;49.474;10.944;2022-09-03T02:51:36;3.58;;;3.28;;
34098;SDS011;20374;49.474;10.944;2022-09-03T02:54:07;4.15;;;3.42;;
34098;SDS011;20374;49.474;10.944;2022-09-03T02:56:35;3.40;;;3.17;;
34098;SDS011;20374;49.474;10.944;2022-09-03T02:59:03;3.78;;;3.47;;
34098;SDS011;20374;49.474;10.944;2022-09-03T03:01:30;3.70;;;3.40;;
34098;SDS011;20374;49.474;10.944;2022-09-03T03:03:57;3.67;;;3.38;;
34098;SDS011;20374;49.474;10.944;2022-09-03T03:06:23;3.67;;;3.38;;
34098;SDS011;20374;49.474;10.944;2022-09-03T03:08:49;3.88;;;3.58;;
34098;SDS011;20374;49.474;10.944;2022-09-03T03:11:15;3.67;;;3.40;;
34098;SDS011;20374;49.474;10.944;2022-09-03T03:13:43;3.97;;;3.67;;
34098;SDS011;20374;49.474;10.944;2022-09-03T03:16:10;3.33;;;3.00;;
34098;SDS011;20374;49.474;10.944;2022-09-03T03:18:37;3.67;;;3.37;;
34098;SDS011;20374;49.474;10.944;2022-09-03T03:21:07;3.75;;;3.35;;
34098;SDS011;20374;49.474;10.944;2022-09-03T03:23:37;4.10;;;3.72;;
34098;SDS011;20374;49.474;10.944;2022-09-03T03:26:05;3.28;;;2.97;;
34098;SDS011;20374;49.474;10.944;2022-09-03T03:28:33;4.03;;;3.72;;
34098;SDS011;20374;49.474;10.944;2022-09-03T03:31:09;3.97;;;3.67;;
34098;SDS011;20374;49.474;10.944;2022-09-03T03:33:37;3.33;;;3.03;;
34098;SDS011;20374;49.474;10.944;2022-09-03T03:38:38;3.65;;;3.20;;
34098;SDS011;20374;49.474;10.944;2022-09-03T03:43:35;3.33;;;3.03;;
34098;SDS011;20374;49.474;10.944;2022-09-03T03:46:01;3.60;;;3.30;;
34098;SDS011;20374;49.474;10.944;2022-09-03T03:48:27;3.67;;;3.38;;
34098;SDS011;20374;49.474;10.944;2022-09-03T03:50:53;3.42;;;3.15;;
34098;SDS011;20374;49.474;10.944;2022-09-03T03:53:19;4.27;;;3.50;;
34098;SDS011;20374;49.474;10.944;2022-09-03T03:55:58;3.60;;;3.30;;
34098;SDS011;20374;49.474;10.944;2022-09-03T03:58:26;4.15;;;3.00;;
34098;SDS011;20374;49.474;10.944;2022-09-03T04:00:54;4.00;;;3.70;;
34098;SDS011;20374;49.474;10.944;2022-09-03T04:03:19;3.53;;;3.15;;
34098;SDS011;20374;49.474;10.944;2022-09-03T04:05:55;3.70;;;3.40;;
34098;SDS011;20374;49.474;10.944;2022-09-03T04:08:23;3.40;;;3.20;;
34098;SDS011;20374;49.474;10.944;2022-09-03T04:10:49;3.90;;;3.20;;
34098;SDS011;20374;49.474;10.944;2022-09-03T04:13:15;3.08;;;2.88;;
34098;SDS011;20374;49.474;10.944;2022-09-03T04:15:41;3.70;;;3.40;;
34098;SDS011;20374;49.474;10.944;2022-09-03T04:18:07;3.58;;;3.28;;
34098;SDS011;20374;49.474;10.944;2022-09-03T04:20:36;2.97;;;2.73;;
34098;SDS011;20374;49.474;10.944;2022-09-03T04:23:04;3.80;;;3.50;;
34098;SDS011;20374;49.474;10.944;2022-09-03T04:25:31;4.75;;;3.83;;
34098;SDS011;20374;49.474;10.944;2022-09-03T04:27:57;3.42;;;3.20;;
34098;SDS011;20374;49.474;10.944;2022-09-03T04:30:24;4.53;;;3.53;;
34098;SDS011;20374;49.474;10.944;2022-09-03T04:32:50;3.80;;;3.50;;
34098;SDS011;20374;49.474;10.944;2022-09-03T04:35:24;4.07;;;3.78;;
34098;SDS011;20374;49.474;10.944;2022-09-03T04:37:57;3.78;;;3.47;;
34098;SDS011;20374;49.474;10.944;2022-09-03T04:40:23;5.17;;;3.67;;
34098;SDS011;20374;49.474;10.944;2022-09-03T04:42:49;3.75;;;3.45;;
34098;SDS011;20374;49.474;10.944;2022-09-03T04:45:16;4.55;;;4.00;;
34098;SDS011;20374;49.474;10.944;2022-09-03T04:47:44;7.32;;;3.45;;
34098;SDS011;20374;49.474;10.944;2022-09-03T04:50:29;8.43;;;3.63;;
34098;SDS011;20374;49.474;10.944;2022-09-03T04:53:00;3.65;;;2.92;;
34098;SDS011;20374;49.474;10.944;2022-09-03T04:55:34;3.42;;;3.13;;
34098;SDS011;20374;49.474;10.944;2022-09-03T04:58:01;3.88;;;3.58;;
34098;SDS011;20374;49.474;10.944;2022-09-03T05:00:28;3.45;;;3.20;;
34098;SDS011;20374;49.474;10.944;2022-09-03T05:02:54;3.60;;;3.30;;
34098;SDS011;20374;49.474;10.944;2022-09-03T05:05:20;3.60;;;3.30;;
34098;SDS011;20374;49.474;10.944;2022-09-03T05:07:45;3.63;;;3.33;;
34098;SDS011;20374;49.474;10.944;2022-09-03T05:10:12;4.30;;;3.57;;
34098;SDS011;20374;49.474;10.944;2022-09-03T05:12:56;3.60;;;3.30;;
34098;SDS011;20374;49.474;10.944;2022-09-03T05:15:23;3.75;;;3.45;;
34098;SDS011;20374;49.474;10.944;2022-09-03T05:17:49;3.45;;;3.15;;
34098;SDS011;20374;49.474;10.944;2022-09-03T05:20:18;3.53;;;3.22;;
34098;SDS011;20374;49.474;10.944;2022-09-03T05:22:43;3.47;;;3.23;;
34098;SDS011;20374;49.474;10.944;2022-09-03T05:25:09;3.70;;;3.40;;
34098;SDS011;20374;49.474;10.944;2022-09-03T05:27:35;3.80;;;3.50;;
34098;SDS011;20374;49.474;10.944;2022-09-03T05:30:01;3.63;;;2.88;;
34098;SDS011;20374;49.474;10.944;2022-09-03T05:32:29;4.40;;;3.95;;
34098;SDS011;20374;49.474;10.944;2022-09-03T05:34:55;3.08;;;2.88;;
34098;SDS011;20374;49.474;10.944;2022-09-03T05:37:21;3.93;;;3.63;;
34098;SDS011;20374;49.474;10.944;2022-09-03T05:39:47;3.58;;;3.28;;
34098;SDS011;20374;49.474;10.944;2022-09-03T05:42:13;4.22;;;3.92;;
34098;SDS011;20374;49.474;10.944;2022-09-03T05:44:39;3.60;;;3.30;;
34098;SDS011;20374;49.474;10.944;2022-09-03T05:47:05;3.15;;;2.88;;
34098;SDS011;20374;49.474;10.944;2022-09-03T05:49:31;3.90;;;3.60;;
34098;SDS011;20374;49.474;10.944;2022-09-03T05:51:57;3.55;;;3.25;;
34098;SDS011;20374;49.474;10.944;2022-09-03T05:54:23;3.63;;;3.33;;
34098;SDS011;20374;49.474;10.944;2022-09-03T05:56:49;4.15;;;3.85;;
34098;SDS011;20374;49.474;10.944;2022-09-03T05:59:14;3.90;;;3.60;;
34098;SDS011;20374;49.474;10.944;2022-09-03T06:01:42;3.55;;;3.25;;
34098;SDS011;20374;49.474;10.944;2022-09-03T06:04:10;4.43;;;4.13;;
34098;SDS011;20374;49.474;10.944;2022-09-03T06:06:38;3.97;;;3.67;;
34098;SDS011;20374;49.474;10.944;2022-09-03T06:09:09;3.65;;;3.35;;
34098;SDS011;20374;49.474;10.944;2022-09-03T06:11:38;3.92;;;3.63;;
34098;SDS011;20374;49.474;10.944;2022-09-03T06:14:05;7.45;;;3.05;;
34098;SDS011;20374;49.474;10.944;2022-09-03T06:16:34;4.20;;;3.90;;
34098;SDS011;20374;49.474;10.944;2022-09-03T06:19:02;3.95;;;3.65;;
34098;SDS011;20374;49.474;10.944;2022-09-03T06:21:31;3.63;;;3.33;;
34098;SDS011;20374;49.474;10.944;2022-09-03T06:23:57;4.20;;;3.90;;
34098;SDS011;20374;49.474;10.944;2022-09-03T06:26:23;3.65;;;3.35;;
34098;SDS011;20374;49.474;10.944;2022-09-03T06:28:49;4.05;;;3.75;;
34098;SDS011;20374;49.474;10.944;2022-09-03T06:31:19;3.95;;;3.65;;
34098;SDS011;20374;49.474;10.944;2022-09-03T06:33:46;4.10;;;3.80;;
34098;SDS011;20374;49.474;10.944;2022-09-03T06:36:13;4.50;;;4.20;;
34098;SDS011;20374;49.474;10.944;2022-09-03T06:38:42;4.50;;;4.05;;
34098;SDS011;20374;49.474;10.944;2022-09-03T06:41:09;4.40;;;4.03;;
34098;SDS011;20374;49.474;10.944;2022-09-03T06:43:50;3.97;;;3.67;;
34098;SDS011;20374;49.474;10.944;2022-09-03T06:46:18;4.07;;;3.78;;
34098;SDS011;20374;49.474;10.944;2022-09-03T06:48:46;4.07;;;3.77;;
34098;SDS011;20374;49.474;10.944;2022-09-03T06:51:13;3.92;;;3.63;;
34098;SDS011;20374;49.474;10.944;2022-09-03T06:53:42;4.53;;;4.22;;
34098;SDS011;20374;49.474;10.944;2022-09-03T06:56:10;4.32;;;3.92;;
34098;SDS011;20374;49.474;10.944;2022-09-03T06:58:38;4.45;;;4.15;;
34098;SDS011;20374;49.474;10.944;2022-09-03T07:01:08;4.10;;;3.80;;
34098;SDS011;20374;49.474;10.944;2022-09-03T07:03:37;3.25;;;3.05;;
34098;SDS011;20374;49.474;10.944;2022-09-03T07:06:08;4.45;;;3.95;;
34098;SDS011;20374;49.474;10.944;2022-09-03T07:08:36;3.85;;;3.65;;
34098;SDS011;20374;49.474;10.944;2022-09-03T07:11:03;4.57;;;4.28;;
34098;SDS011;20374;49.474;10.944;2022-09-03T07:13:40;3.17;;;2.93;;
34098;SDS011;20374;49.474;10.944;2022-09-03T07:16:10;4.07;;;3.78;;
34098;SDS011;20374;49.474;10.944;2022-09-03T07:18:42;4.28;;;3.97;;
34098;SDS011;20374;49.474;10.944;2022-09-03T07:21:09;4.18;;;3.88;;
34098;SDS011;20374;49.474;10.944;2022-09-03T07:23:37;3.70;;;3.40;;
34098;SDS011;20374;49.474;10.944;2022-09-03T07:26:04;4.47;;;4.17;;
34098;SDS011;20374;49.474;10.944;2022-09-03T07:28:33;3.80;;;3.50;;
34098;SDS011;20374;49.474;10.944;2022-09-03T07:31:05;4.20;;;3.90;;
34098;SDS011;20374;49.474;10.944;2022-09-03T07:33:33;4.32;;;3.92;;
34098;SDS011;20374;49.474;10.944;2022-09-03T07:36:06;3.90;;;3.60;;
34098;SDS011;20374;49.474;10.944;2022-09-03T07:38:34;3.47;;;3.27;;
34098;SDS011;20374;49.474;10.944;2022-09-03T07:41:02;3.95;;;3.65;;
34098;SDS011;20374;49.474;10.944;2022-09-03T07:43:37;3.97;;;3.67;;
34098;SDS011;20374;49.474;10.944;2022-09-03T07:46:09;3.90;;;3.60;;
34098;SDS011;20374;49.474;10.944;2022-09-03T07:48:38;4.50;;;4.20;;
34098;SDS011;20374;49.474;10.944;2022-09-03T07:51:05;4.47;;;4.07;;
34098;SDS011;20374;49.474;10.944;2022-09-03T07:53:31;3.63;;;3.42;;
34098;SDS011;20374;49.474;10.944;2022-09-03T07:56:04;4.07;;;3.78;;
34098;SDS011;20374;49.474;10.944;2022-09-03T07:58:33;4.63;;;4.32;;
34098;SDS011;20374;49.474;10.944;2022-09-03T08:01:03;3.88;;;3.58;;
34098;SDS011;20374;49.474;10.944;2022-09-03T08:03:33;3.67;;;3.47;;
34098;SDS011;20374;49.474;10.944;2022-09-03T08:06:03;4.32;;;4.03;;
34098;SDS011;20374;49.474;10.944;2022-09-03T08:08:31;4.25;;;3.88;;
34098;SDS011;20374;49.474;10.944;2022-09-03T08:11:07;4.38;;;3.90;;
34098;SDS011;20374;49.474;10.944;2022-09-03T08:13:47;4.05;;;3.75;;
34098;SDS011;20374;49.474;10.944;2022-09-03T08:16:19;4.07;;;3.83;;
34098;SDS011;20374;49.474;10.944;2022-09-03T08:18:45;3.95;;;3.58;;
34098;SDS011;20374;49.474;10.944;2022-09-03T08:21:15;4.03;;;3.72;;
34098;SDS011;20374;49.474;10.944;2022-09-03T08:23:44;6.10;;;3.90;;
34098;SDS011;20374;49.474;10.944;2022-09-03T08:26:11;3.90;;;3.60;;
34098;SDS011;20374;49.474;10.944;2022-09-03T08:28:38;3.87;;;3.57;;
34098;SDS011;20374;49.474;10.944;2022-09-03T08:31:17;3.38;;;3.10;;
34098;SDS011;20374;49.474;10.944;2022-09-03T08:33:45;4.57;;;4.28;;
34098;SDS011;20374;49.474;10.944;2022-09-03T08:38:45;4.88;;;4.20;;
34098;SDS011;20374;49.474;10.944;2022-09-03T08:41:12;4.33;;;3.93;;
34098;SDS011;20374;49.474;10.944;2022-09-03T08:43:47;4.05;;;3.75;;
34098;SDS011;20374;49.474;10.944;2022-09-03T08:52:12;4.10;;;3.80;;
34098;SDS011;20374;49.474;10.944;2022-09-03T08:54:46;3.60;;;3.30;;
34098;SDS011;20374;49.474;10.944;2022-09-03T08:57:15;4.07;;;3.78;;
34098;SDS011;20374;49.474;10.944;2022-09-03T08:59:45;3.80;;;3.50;;
34098;SDS011;20374;49.474;10.944;2022-09-03T09:02:25;4.13;;;3.83;;
34098;SDS011;20374;49.474;10.944;2022-09-03T09:05:16;4.17;;;3.27;;
34098;SDS011;20374;49.474;10.944;2022-09-03T09:07:56;3.55;;;3.22;;
34098;SDS011;20374;49.474;10.944;2022-09-03T09:11:14;3.92;;;3.63;;
34098;SDS011;20374;49.474;10.944;2022-09-03T09:13:55;3.75;;;3.45;;
34098;SDS011;20374;49.474;10.944;2022-09-03T09:19:17;3.27;;;3.03;;
34098;SDS011;20374;49.474;10.944;2022-09-03T09:24:49;4.30;;;4.00;;
34098;SDS011;20374;49.474;10.944;2022-09-03T09:27:17;3.70;;;3.40;;
34098;SDS011;20374;49.474;10.944;2022-09-03T09:29:45;4.13;;;3.83;;
34098;SDS011;20374;49.474;10.944;2022-09-03T09:32:13;4.13;;;3.83;;
34098;SDS011;20374;49.474;10.944;2022-09-03T09:34:42;4.65;;;4.20;;
34098;SDS011;20374;49.474;10.944;2022-09-03T09:37:09;4.20;;;3.90;;
34098;SDS011;20374;49.474;10.944;2022-09-03T09:39:52;3.78;;;3.53;;
34098;SDS011;20374;49.474;10.944;2022-09-03T09:42:21;3.35;;;3.08;;
34098;SDS011;20374;49.474;10.944;2022-09-03T09:44:48;3.77;;;3.47;;
34098;SDS011;20374;49.474;10.944;2022-09-03T09:47:24;4.53;;;4.13;;
34098;SDS011;20374;49.474;10.944;2022-09-03T09:49:58;3.60;;;3.30;;
34098;SDS011;20374;49.474;10.944;2022-09-03T09:52:27;4.45;;;3.38;;
34098;SDS011;20374;49.474;10.944;2022-09-03T09:55:09;3.90;;;3.60;;
34098;SDS011;20374;49.474;10.944;2022-09-03T09:57:40;4.00;;;3.70;;
34098;SDS011;20374;49.474;10.944;2022-09-03T10:00:10;4.50;;;3.13;;
34098;SDS011;20374;49.474;10.944;2022-09-03T10:02:38;3.95;;;3.65;;
34098;SDS011;20374;49.474;10.944;2022-09-03T10:05:12;4.10;;;3.80;;
34098;SDS011;20374;49.474;10.944;2022-09-03T10:07:56;4.20;;;3.90;;
34098;SDS011;20374;49.474;10.944;2022-09-03T10:10:42;3.93;;;3.63;;
34098;SDS011;20374;49.474;10.944;2022-09-03T10:13:24;3.65;;;3.35;;
34098;SDS011;20374;49.474;10.944;2022-09-03T10:16:04;3.85;;;3.55;;
34098;SDS011;20374;49.474;10.944;2022-09-03T10:18:39;3.70;;;3.40;;
34098;SDS011;20374;49.474;10.944;2022-09-03T10:21:21;4.55;;;4.15;;
34098;SDS011;20374;49.474;10.944;2022-09-03T10:26:39;4.65;;;4.28;;
34098;SDS011;20374;49.474;10.944;2022-09-03T10:29:09;4.30;;;4.00;;
34098;SDS011;20374;49.474;10.944;2022-09-03T10:34:15;4.18;;;3.88;;
34098;SDS011;20374;49.474;10.944;2022-09-03T10:51:04;3.45;;;3.15;;
34098;SDS011;20374;49.474;10.944;2022-09-03T11:07:49;4.38;;;4.07;;
34098;SDS011;20374;49.474;10.944;2022-09-03T11:10:21;4.30;;;4.00;;
34098;SDS011;20374;49.474;10.944;2022-09-03T11:13:14;4.82;;;4.43;;
34098;SDS011;20374;49.474;10.944;2022-09-03T11:20:54;5.05;;;4.75;;
34098;SDS011;20374;49.474;10.944;2022-09-03T11:23:25;21.73;;;5.22;;
34098;SDS011;20374;49.474;10.944;2022-09-03T11:25:53;4.50;;;4.10;;
34098;SDS011;20374;49.474;10.944;2022-09-03T11:34:12;5.30;;;4.80;;
34098;SDS011;20374;49.474;10.944;2022-09-03T11:36:39;4.78;;;4.47;;
34098;SDS011;20374;49.474;10.944;2022-09-03T11:42:04;4.27;;;3.97;;
34098;SDS011;20374;49.474;10.944;2022-09-03T11:44:58;5.05;;;4.75;;
34098;SDS011;20374;49.474;10.944;2022-09-03T11:47:36;5.22;;;4.90;;
34098;SDS011;20374;49.474;10.944;2022-09-03T11:50:16;5.28;;;4.88;;
34098;SDS011;20374;49.474;10.944;2022-09-03T11:52:47;4.63;;;4.30;;
34098;SDS011;20374;49.474;10.944;2022-09-03T11:55:26;5.23;;;4.93;;
34098;SDS011;20374;49.474;10.944;2022-09-03T11:57:55;9.52;;;9.02;;
34098;SDS011;20374;49.474;10.944;2022-09-03T12:00:22;5.53;;;5.13;;
34098;SDS011;20374;49.474;10.944;2022-09-03T12:02:50;5.25;;;4.75;;
34098;SDS011;20374;49.474;10.944;2022-09-03T12:08:04;6.03;;;5.13;;
34098;SDS011;20374;49.474;10.944;2022-09-03T12:10:44;5.82;;;4.97;;
34098;SDS011;20374;49.474;10.944;2022-09-03T12:13:23;4.82;;;4.53;;
34098;SDS011;20374;49.474;10.944;2022-09-03T12:19:03;4.68;;;4.38;;
34098;SDS011;20374;49.474;10.944;2022-09-03T12:21:38;4.67;;;4.37;;
34098;SDS011;20374;49.474;10.944;2022-09-03T12:24:05;4.60;;;4.30;;
34098;SDS011;20374;49.474;10.944;2022-09-03T12:26:39;5.50;;;5.15;;
34098;SDS011;20374;49.474;10.944;2022-09-03T12:29:06;5.60;;;5.07;;
34098;SDS011;20374;49.474;10.944;2022-09-03T12:31:49;4.45;;;4.03;;
34098;SDS011;20374;49.474;10.944;2022-09-03T12:34:17;5.20;;;4.70;;
34098;SDS011;20374;49.474;10.944;2022-09-03T12:36:46;4.13;;;3.72;;
34098;SDS011;20374;49.474;10.944;2022-09-03T12:42:01;4.60;;;4.30;;
34098;SDS011;20374;49.474;10.944;2022-09-03T12:44:37;4.88;;;4.47;;
34098;SDS011;20374;49.474;10.944;2022-09-03T12:49:35;5.07;;;4.68;;
34098;SDS011;20374;49.474;10.944;2022-09-03T12:52:07;5.15;;;4.85;;
34098;SDS011;20374;49.474;10.944;2022-09-03T12:54:37;4.55;;;4.25;;
34098;SDS011;20374;49.474;10.944;2022-09-03T12:57:16;4.77;;;4.37;;
34098;SDS011;20374;49.474;10.944;2022-09-03T13:00:06;5.30;;;4.90;;
34098;SDS011;20374;49.474;10.944;2022-09-03T13:02:36;5.13;;;4.82;;
34098;SDS011;20374;49.474;10.944;2022-09-03T13:05:28;4.40;;;4.10;;
34098;SDS011;20374;49.474;10.944;2022-09-03T13:08:00;5.00;;;4.60;;
34098;SDS011;20374;49.474;10.944;2022-09-03T13:10:32;5.63;;;5.23;;
34098;SDS011;20374;49.474;10.944;2022-09-03T13:13:04;6.25;;;5.85;;
34098;SDS011;20374;49.474;10.944;2022-09-03T13:18:54;4.63;;;4.32;;
34098;SDS011;20374;49.474;10.944;2022-09-03T13:26:51;4.63;;;4.32;;
34098;SDS011;20374;49.474;10.944;2022-09-03T13:35:08;5.63;;;5.32;;
34098;SDS011;20374;49.474;10.944;2022-09-03T13:37:39;4.20;;;3.90;;
34098;SDS011;20374;49.474;10.944;2022-09-03T13:40:18;4.63;;;4.30;;
34098;SDS011;20374;49.474;10.944;2022-09-03T13:42:59;5.25;;;4.72;;
34098;SDS011;20374;49.474;10.944;2022-09-03T13:45:43;5.78;;;5.38;;
34098;SDS011;20374;49.474;10.944;2022-09-03T13:48:19;4.75;;;4.45;;
34098;SDS011;20374;49.474;10.944;2022-09-03T13:51:12;5.60;;;5.20;;
34098;SDS011;20374;49.474;10.944;2022-09-03T13:58:52;5.65;;;5.30;;
34098;SDS011;20374;49.474;10.944;2022-09-03T14:01:26;5.05;;;4.75;;
34098;SDS011;20374;49.474;10.944;2022-09-03T14:04:01;4.90;;;4.53;;
34098;SDS011;20374;49.474;10.944;2022-09-03T14:06:40;5.57;;;5.18;;
34098;SDS011;20374;49.474;10.944;2022-09-03T14:20:22;5.65;;;3.78;;
34098;SDS011;20374;49.474;10.944;2022-09-03T14:25:53;4.60;;;4.28;;
34098;SDS011;20374;49.474;10.944;2022-09-03T14:28:33;4.97;;;4.57;;
34098;SDS011;20374;49.474;10.944;2022-09-03T14:31:15;5.77;;;5.37;;
34098;SDS011;20374;49.474;10.944;2022-09-03T14:34:11;5.53;;;5.13;;
34098;SDS011;20374;49.474;10.944;2022-09-03T14:56:35;4.93;;;4.53;;
34098;SDS011;20374;49.474;10.944;2022-09-03T15:01:41;5.45;;;5.05;;
34098;SDS011;20374;49.474;10.944;2022-09-03T15:06:51;4.95;;;4.65;;
34098;SDS011;20374;49.474;10.944;2022-09-03T15:14:38;3.85;;;3.55;;
34098;SDS011;20374;49.474;10.944;2022-09-03T15:23:01;4.23;;;3.93;;
34098;SDS011;20374;49.474;10.944;2022-09-03T15:40:00;5.05;;;4.75;;
34098;SDS011;20374;49.474;10.944;2022-09-03T15:42:34;5.05;;;4.65;;
34098;SDS011;20374;49.474;10.944;2022-09-03T15:45:03;5.05;;;4.65;;
34098;SDS011;20374;49.474;10.944;2022-09-03T15:50:14;5.57;;;5.03;;
34098;SDS011;20374;49.474;10.944;2022-09-03T15:58:27;4.85;;;4.55;;
34098;SDS011;20374;49.474;10.944;2022-09-03T16:01:04;5.30;;;4.90;;
34098;SDS011;20374;49.474;10.944;2022-09-03T16:15:00;4.90;;;4.50;;
34098;SDS011;20374;49.474;10.944;2022-09-03T16:20:13;8.93;;;8.23;;
34098;SDS011;20374;49.474;10.944;2022-09-03T16:25:19;5.45;;;5.05;;
34098;SDS011;20374;49.474;10.944;2022-09-03T16:27:57;5.57;;;5.18;;
34098;SDS011;20374;49.474;10.944;2022-09-03T16:41:10;5.57;;;5.07;;
34098;SDS011;20374;49.474;10.944;2022-09-03T16:46:41;5.32;;;4.82;;
34098;SDS011;20374;49.474;10.944;2022-09-03T16:49:24;5.20;;;4.80;;
34098;SDS011;20374;49.474;10.944;2022-09-03T16:52:15;5.50;;;4.82;;
34098;SDS011;20374;49.474;10.944;2022-09-03T16:55:17;5.18;;;4.78;;
34098;SDS011;20374;49.474;10.944;2022-09-03T17:12:07;5.20;;;4.67;;
34098;SDS011;20374;49.474;10.944;2022-09-03T17:18:18;6.63;;;4.85;;
34098;SDS011;20374;49.474;10.944;2022-09-03T17:20:51;6.28;;;4.97;;
34098;SDS011;20374;49.474;10.944;2022-09-03T17:26:11;5.07;;;4.67;;
34098;SDS011;20374;49.474;10.944;2022-09-03T17:41:12;5.40;;;4.90;;
34098;SDS011;20374;49.474;10.944;2022-09-03T17:44:00;4.85;;;4.45;;
34098;SDS011;20374;49.474;10.944;2022-09-03T17:49:49;4.57;;;4.28;;
34098;SDS011;20374;49.474;10.944;2022-09-03T17:58:40;4.85;;;4.22;;
34098;SDS011;20374;49.474;10.944;2022-09-03T18:01:23;5.47;;;5.00;;
34098;SDS011;20374;49.474;10.944;2022-09-03T18:03:53;4.72;;;4.32;;
34098;SDS011;20374;49.474;10.944;2022-09-03T18:12:01;5.05;;;4.53;;
34098;SDS011;20374;49.474;10.944;2022-09-03T18:14:43;4.70;;;4.30;;
34098;SDS011;20374;49.474;10.944;2022-09-03T18:17:32;5.32;;;4.82;;
34098;SDS011;20374;49.474;10.944;2022-09-03T18:20:07;5.30;;;4.90;;
34098;SDS011;20374;49.474;10.944;2022-09-03T18:25:44;5.15;;;4.65;;
34098;SDS011;20374;49.474;10.944;2022-09-03T18:28:41;5.40;;;4.90;;
34098;SDS011;20374;49.474;10.944;2022-09-03T18:31:30;5.05;;;4.65;;
34098;SDS011;20374;49.474;10.944;2022-09-03T18:36:47;5.23;;;4.80;;
34098;SDS011;20374;49.474;10.944;2022-09-03T18:39:32;5.35;;;4.85;;
34098;SDS011;20374;49.474;10.944;2022-09-03T18:48:27;5.35;;;4.85;;
34098;SDS011;20374;49.474;10.944;2022-09-03T18:51:50;5.17;;;4.57;;
34098;SDS011;20374;49.474;10.944;2022-09-03T19:01:06;4.25;;;3.90;;
34098;SDS011;20374;49.474;10.944;2022-09-03T19:04:20;4.20;;;3.90;;
34098;SDS011;20374;49.474;10.944;2022-09-03T19:07:12;7.03;;;3.83;;
34098;SDS011;20374;49.474;10.944;2022-09-03T19:10:10;4.68;;;4.22;;
34098;SDS011;20374;49.474;10.944;2022-09-03T19:15:56;4.70;;;4.38;;
34098;SDS011;20374;49.474;10.944;2022-09-03T19:19:11;4.82;;;4.32;;
34098;SDS011;20374;49.474;10.944;2022-09-03T19:22:10;4.03;;;3.73;;
34098;SDS011;20374;49.474;10.944;2022-09-03T19:25:02;4.38;;;4.07;;
34098;SDS011;20374;49.474;10.944;2022-09-03T19:28:12;4.60;;;4.20;;
34098;SDS011;20374;49.474;10.944;2022-09-03T19:34:29;4.80;;;4.40;;
34098;SDS011;20374;49.474;10.944;2022-09-03T19:37:20;4.10;;;3.70;;
34098;SDS011;20374;49.474;10.944;2022-09-03T19:40:47;4.40;;;4.00;;
34098;SDS011;20374;49.474;10.944;2022-09-03T19:47:00;4.50;;;4.18;;
34098;SDS011;20374;49.474;10.944;2022-09-03T19:52:54;5.03;;;4.53;;
34098;SDS011;20374;49.474;10.944;2022-09-03T19:55:45;4.60;;;4.20;;
34098;SDS011;20374;49.474;10.944;2022-09-03T19:58:35;4.72;;;4.30;;
34098;SDS011;20374;49.474;10.944;2022-09-03T20:01:24;4.50;;;4.10;;
34098;SDS011;20374;49.474;10.944;2022-09-03T20:04:16;5.03;;;4.63;;
34098;SDS011;20374;49.474;10.944;2022-09-03T20:07:02;4.73;;;4.33;;
34098;SDS011;20374;49.474;10.944;2022-09-03T20:09:49;5.10;;;4.57;;
34098;SDS011;20374;49.474;10.944;2022-09-03T20:12:38;5.32;;;4.03;;
34098;SDS011;20374;49.474;10.944;2022-09-03T20:15:09;5.30;;;4.80;;
34098;SDS011;20374;49.474;10.944;2022-09-03T20:22:56;4.55;;;4.07;;
34098;SDS011;20374;49.474;10.944;2022-09-03T20:25:36;4.63;;;4.22;;
34098;SDS011;20374;49.474;10.944;2022-09-03T20:36:24;6.18;;;4.45;;
34098;SDS011;20374;49.474;10.944;2022-09-03T20:42:21;5.10;;;4.70;;
34098;SDS011;20374;49.474;10.944;2022-09-03T20:50:18;4.93;;;4.53;;
34098;SDS011;20374;49.474;10.944;2022-09-03T20:56:08;5.95;;;4.97;;
34098;SDS011;20374;49.474;10.944;2022-09-03T21:01:26;5.30;;;4.80;;
34098;SDS011;20374;49.474;10.944;2022-09-03T21:04:46;6.07;;;5.57;;
34098;SDS011;20374;49.474;10.944;2022-09-03T21:15:46;6.07;;;5.57;;
34098;SDS011;20374;49.474;10.944;2022-09-03T21:22:03;6.40;;;4.95;;
34098;SDS011;20374;49.474;10.944;2022-09-03T21:24:04;5.60;;;5.10;;
34098;SDS011;20374;49.474;10.944;2022-09-03T21:26:39;5.80;;;5.30;;
34098;SDS011;20374;49.474;10.944;2022-09-03T21:34:29;5.53;;;5.05;;
34098;SDS011;20374;49.474;10.944;2022-09-03T21:37:15;5.13;;;4.72;;
34098;SDS011;20374;49.474;10.944;2022-09-03T21:39:47;5.73;;;5.23;;
34098;SDS011;20374;49.474;10.944;2022-09-03T21:42:30;6.35;;;5.15;;
34098;SDS011;20374;49.474;10.944;2022-09-03T21:45:28;4.95;;;4.50;;
34098;SDS011;20374;49.474;10.944;2022-09-03T21:48:08;4.88;;;4.47;;
34098;SDS011;20374;49.474;10.944;2022-09-03T21:50:44;5.25;;;4.75;;
34098;SDS011;20374;49.474;10.944;2022-09-03T22:01:28;5.57;;;5.07;;